Aeroporto :
LOGIN :

Iscrizione | Disclaimer

   EN    FR    IT 

 










Sommario :    VFR   VFR Marginale   IFR   IFR Intensivo   IFR Molto Intensivo
Visibilità : 
Base nubi : 
>= 8 km
>= 3000ft
5 / 8 km
1000 / 3000 ft
1500m / 5 km
500 / 1000 ft
800 / 1500m
200 / 500 ft
< 800m
< 200 ft
Simboli :   Temporali  Nebbia  Neve Forte  Precipitazioni Forti  Vento > 20 kt
SIGMETs :   Varie  Temporali  Ghiacco  Turbolenza  Onda orograficha  Ceneri Vulcaniche






- Altitudine del aeroporto : 14 ft
- Codice IATA : BRE


EDDW - Bremen Neuenland

ULTIMO METAR :
  • 181350Z 08011KT CAVOK 19/04 Q1027 NOSIG

METARs OBSOLETI :
  • 181320Z 08011KT 050V120 CAVOK 19/05 Q1027 NOSIG
  • 181250Z 09011KT 060V140 CAVOK 19/05 Q1028 NOSIG
  • 181220Z 10009KT 060V140 CAVOK 19/06 Q1028 NOSIG
  • 181150Z 08009KT 050V130 CAVOK 18/06 Q1028 NOSIG
  • 181120Z 11008KT 080V160 CAVOK 17/06 Q1029 NOSIG

TAF TAF EDDW
Valido dal 18 a 12 ore il 19 a 12 ore UTC


181100Z 1812/1912 08007KT CAVOK



MetMap, La meteo Aeronautica in un colpo d'occhio ! - Copyright ORBIFLY Dicembre 2007 - Disclaimer

ORBIFLY MET'MAP TEAM :

Programmazione e sviluppo : Alexandra Zaïnal
Concezione : Baudouin d'Aumeries
Aiuto per la programmazione : Marc-Olivier Méhu
Supporto tecnico e logistico : Manuel Goepfert
Aiuto per la traduzione : Arnaldo La Scala

Contatto : metmap@orbifly.com




FONTI E CREDITI :

   NOAA